createdAt,value
2022-11-07T00:00:47.484Z,18.65
2022-11-07T00:03:16.855Z,19.95
2022-11-07T00:05:43.669Z,20.23
2022-11-07T00:08:10.202Z,19.55
2022-11-07T00:10:59.485Z,19.02
2022-11-07T00:13:27.433Z,20.10
2022-11-07T00:15:57.984Z,18.92
2022-11-07T00:18:24.560Z,20.23
2022-11-07T00:24:19.544Z,20.42
2022-11-07T00:26:47.110Z,20.65
2022-11-07T00:29:19.144Z,19.62
2022-11-07T00:31:46.416Z,21.03
2022-11-07T00:34:13.209Z,20.20
2022-11-07T00:36:39.929Z,18.60
2022-11-07T00:39:25.358Z,17.70
2022-11-07T00:41:51.944Z,17.73
2022-11-07T00:44:18.602Z,19.83
2022-11-07T00:46:45.219Z,17.02
2022-11-07T00:53:04.781Z,17.75
2022-11-07T00:56:00.191Z,17.55
2022-11-07T00:58:26.779Z,15.65
2022-11-07T01:00:53.339Z,16.77
2022-11-07T01:03:38.750Z,17.00
2022-11-07T01:06:05.598Z,17.23
2022-11-07T01:24:52.578Z,15.77
2022-11-07T01:27:19.159Z,18.27
2022-11-07T01:29:45.757Z,16.55
2022-11-07T01:32:12.352Z,18.35
2022-11-07T01:34:38.911Z,16.92
2022-11-07T01:37:05.471Z,16.30
2022-11-07T01:39:47.394Z,17.00
2022-11-07T01:42:13.931Z,16.42
2022-11-07T01:44:40.472Z,17.02
2022-11-07T01:47:07.952Z,16.35
2022-11-07T01:53:02.419Z,16.00
2022-11-07T01:55:35.494Z,16.48
2022-11-07T01:58:05.704Z,15.55
2022-11-07T02:00:34.060Z,15.38
2022-11-07T02:03:21.093Z,15.35
2022-11-07T02:06:11.471Z,14.95
2022-11-07T02:09:06.628Z,15.75
2022-11-07T02:11:35.127Z,15.38
2022-11-07T02:14:01.776Z,14.13
2022-11-07T02:16:29.047Z,13.62
2022-11-07T02:22:25.387Z,14.48
2022-11-07T02:24:57.055Z,13.88
2022-11-07T02:27:25.894Z,14.35
2022-11-07T02:30:00.658Z,14.75
2022-11-07T02:32:27.447Z,12.60
2022-11-07T02:35:02.117Z,15.18
2022-11-07T02:37:40.600Z,13.15
2022-11-07T02:40:10.004Z,13.88
2022-11-07T02:42:45.006Z,14.55
2022-11-07T02:45:27.979Z,14.85
2022-11-07T02:48:19.355Z,14.27
2022-11-07T02:50:59.327Z,14.25
2022-11-07T02:53:42.153Z,13.70
2022-11-07T02:56:09.062Z,14.70
2022-11-07T02:58:36.316Z,13.52
2022-11-07T03:01:07.093Z,14.70
2022-11-07T03:03:42.278Z,14.00
2022-11-07T03:09:04.602Z,14.52
2022-11-07T03:17:29.419Z,14.90
2022-11-07T03:19:55.950Z,15.30
2022-11-07T03:23:06.210Z,15.50
2022-11-07T03:26:10.374Z,16.52
2022-11-07T03:37:17.484Z,18.20
2022-11-07T03:39:44.077Z,18.40
2022-11-07T03:47:21.089Z,18.23
2022-11-07T03:49:47.651Z,17.52
2022-11-07T03:53:03.758Z,18.87
2022-11-07T03:56:05.752Z,17.95
2022-11-07T03:58:32.309Z,17.67
2022-11-07T04:00:58.872Z,18.87
2022-11-07T04:03:25.513Z,19.15
2022-11-07T04:41:21.800Z,23.80
2022-11-07T04:43:48.898Z,25.80
2022-11-07T04:46:16.697Z,24.52
2022-11-07T04:51:24.615Z,25.90
2022-11-07T04:53:51.348Z,24.98
2022-11-07T04:56:39.889Z,24.67
2022-11-07T04:59:06.764Z,24.70
2022-11-07T05:01:33.407Z,24.63
2022-11-07T05:04:00.154Z,23.02
2022-11-07T05:13:24.495Z,25.02
2022-11-07T05:15:52.387Z,24.75
2022-11-07T05:18:21.189Z,25.65
2022-11-07T05:20:47.759Z,25.65
2022-11-07T05:23:20.659Z,25.20
2022-11-07T05:26:11.976Z,25.88
2022-11-07T05:28:39.795Z,26.15
2022-11-07T05:31:18.175Z,25.85
2022-11-07T05:45:00.623Z,26.23
2022-11-07T05:50:15.758Z,27.37
2022-11-07T05:52:42.684Z,27.48
2022-11-07T06:03:01.979Z,26.77
2022-11-07T06:05:29.289Z,27.70
2022-11-07T06:07:56.060Z,26.67
2022-11-07T06:10:23.061Z,26.33
2022-11-07T06:13:00.606Z,26.17
2022-11-07T06:15:29.206Z,26.77
2022-11-07T06:18:00.292Z,27.50
2022-11-07T06:20:27.529Z,27.65
2022-11-07T06:22:58.518Z,28.25
2022-11-07T06:31:06.720Z,28.05
2022-11-07T06:33:33.464Z,26.17
2022-11-07T06:36:11.453Z,26.00
2022-11-07T06:38:39.099Z,25.33
2022-11-07T06:41:12.528Z,24.63
2022-11-07T06:43:39.452Z,26.75
2022-11-07T06:46:10.547Z,26.05
2022-11-07T06:48:37.948Z,26.30
2022-11-07T06:51:06.677Z,26.05
2022-11-07T06:53:44.015Z,24.60
2022-11-07T06:56:19.437Z,26.30
2022-11-07T06:58:48.956Z,26.95
2022-11-07T07:01:16.855Z,25.65
2022-11-07T07:03:45.115Z,25.20
2022-11-07T07:06:16.766Z,24.67
2022-11-07T07:08:44.489Z,25.52
2022-11-07T07:11:13.956Z,26.10
2022-11-07T07:18:51.065Z,26.30
2022-11-07T07:21:17.659Z,25.50
2022-11-07T07:23:44.234Z,26.20
2022-11-07T07:26:15.560Z,26.70
2022-11-07T07:28:46.889Z,26.58
2022-11-07T07:31:13.357Z,24.92
2022-11-07T07:33:44.938Z,23.70
2022-11-07T07:36:16.477Z,25.08
2022-11-07T07:38:46.028Z,24.95
2022-11-07T07:41:27.847Z,24.95
2022-11-07T07:43:54.514Z,24.20
2022-11-07T07:46:23.554Z,26.15
2022-11-07T07:48:50.114Z,24.08
2022-11-07T07:51:38.945Z,21.58
2022-11-07T07:54:05.542Z,21.60
2022-11-07T07:56:32.521Z,23.70
2022-11-07T07:58:59.990Z,21.15
2022-11-07T08:01:26.624Z,20.20
2022-11-07T08:04:02.366Z,19.75
2022-11-07T08:10:44.188Z,18.98
2022-11-07T08:13:10.857Z,17.75
2022-11-07T08:15:37.684Z,18.55
2022-11-07T08:18:04.926Z,18.48
2022-11-07T08:20:32.062Z,17.65
2022-11-07T08:23:16.422Z,17.60
2022-11-07T08:25:51.422Z,16.65
2022-11-07T08:28:18.836Z,17.42
2022-11-07T08:39:18.667Z,18.30
2022-11-07T08:44:26.742Z,17.77
2022-11-07T09:08:06.727Z,15.40
2022-11-07T09:10:34.903Z,16.70
2022-11-07T09:13:01.531Z,15.75
2022-11-07T09:47:22.591Z,13.60
2022-11-07T09:50:14.961Z,12.60
2022-11-07T11:04:38.428Z,8.52
2022-11-07T11:07:11.550Z,8.27
2022-11-07T11:12:14.600Z,8.02
2022-11-07T11:17:34.939Z,8.70
2022-11-07T11:20:01.962Z,7.65
2022-11-07T11:22:29.281Z,8.02
2022-11-07T11:25:11.107Z,6.72
2022-11-07T11:27:51.390Z,7.78
2022-11-07T11:33:14.443Z,8.38
2022-11-07T11:35:56.058Z,10.43
2022-11-07T11:38:33.183Z,9.95
2022-11-07T11:41:10.698Z,8.45
2022-11-07T11:43:59.840Z,7.35
2022-11-07T11:46:45.583Z,8.20
2022-11-07T11:51:56.009Z,7.87
2022-11-07T11:54:22.700Z,7.80
2022-11-07T11:57:23.710Z,8.27
2022-11-07T11:59:50.268Z,8.52
2022-11-07T12:02:22.482Z,8.35
2022-11-07T12:05:19.493Z,7.95
2022-11-07T12:07:57.782Z,8.07
2022-11-07T12:10:52.295Z,8.15
2022-11-07T12:13:28.265Z,10.32
2022-11-07T12:16:07.172Z,12.65
2022-11-07T12:19:15.943Z,10.70
2022-11-07T12:21:48.757Z,11.12
2022-11-07T12:27:03.241Z,13.40
2022-11-07T12:29:47.304Z,10.80
2022-11-07T12:32:19.791Z,17.67
2022-11-07T12:35:07.581Z,7.12
2022-11-07T12:37:58.216Z,8.15
2022-11-07T12:40:27.538Z,5.95
2022-11-07T12:46:13.811Z,5.22
2022-11-07T12:49:01.785Z,5.60
2022-11-07T12:51:45.599Z,7.65
2022-11-07T12:54:21.047Z,5.95
2022-11-07T12:56:49.494Z,5.43
2022-11-07T12:59:23.902Z,4.45
2022-11-07T13:02:15.978Z,3.05
2022-11-07T13:05:18.528Z,3.45
2022-11-07T13:08:00.727Z,2.75
2022-11-07T13:29:02.383Z,3.75
2022-11-07T13:31:40.497Z,3.97
2022-11-07T13:34:18.876Z,4.50
2022-11-07T13:36:50.767Z,3.90
2022-11-07T13:39:18.550Z,3.37
2022-11-07T13:41:46.388Z,3.65
2022-11-07T13:44:22.748Z,2.87
2022-11-07T13:47:17.716Z,2.87
2022-11-07T13:49:47.766Z,2.70
2022-11-07T13:52:26.823Z,2.40
2022-11-07T13:55:21.972Z,2.67
2022-11-07T13:57:54.807Z,2.67
2022-11-07T14:00:22.006Z,2.62
2022-11-07T14:02:54.491Z,2.30
2022-11-07T14:05:24.014Z,2.80
2022-11-07T14:08:02.437Z,2.60
2022-11-07T14:10:47.158Z,2.78
2022-11-07T14:13:25.218Z,3.15
2022-11-07T14:16:25.139Z,3.10
2022-11-07T14:18:57.043Z,3.00
2022-11-07T14:21:27.596Z,3.17
2022-11-07T14:23:54.542Z,3.08
2022-11-07T14:26:30.663Z,3.40
2022-11-07T14:29:00.654Z,3.53
2022-11-07T14:31:30.375Z,3.50
2022-11-07T14:34:00.406Z,3.25
2022-11-07T14:36:28.362Z,3.15
2022-11-07T14:39:11.294Z,3.58
2022-11-07T14:41:43.203Z,3.15
2022-11-07T14:44:17.354Z,3.08
2022-11-07T14:46:44.686Z,2.95
2022-11-07T14:49:39.593Z,3.12
2022-11-07T14:52:08.984Z,2.90
2022-11-07T14:54:41.940Z,2.97
2022-11-07T14:57:11.585Z,3.10
2022-11-07T14:59:39.057Z,3.95
2022-11-07T15:02:11.781Z,5.80
2022-11-07T15:04:42.411Z,9.65
2022-11-07T15:07:20.386Z,7.45
2022-11-07T15:09:46.943Z,5.90
2022-11-07T15:12:25.943Z,5.62
2022-11-07T15:15:17.231Z,4.75
2022-11-07T15:17:48.819Z,4.50
2022-11-07T15:20:37.047Z,4.80
2022-11-07T15:23:12.635Z,5.40
2022-11-07T15:25:41.811Z,7.95
2022-11-07T15:28:43.289Z,11.30
2022-11-07T15:31:26.078Z,10.73
2022-11-07T15:33:53.707Z,8.88
2022-11-07T15:36:20.968Z,9.52
2022-11-07T15:38:49.188Z,14.73
2022-11-07T15:41:16.154Z,18.60
2022-11-07T15:43:42.679Z,14.80
2022-11-07T15:46:31.042Z,10.75
2022-11-07T15:48:57.785Z,8.55
2022-11-07T15:51:24.495Z,8.02
2022-11-07T15:53:51.090Z,8.68
2022-11-07T15:56:22.109Z,9.70
2022-11-07T15:58:49.606Z,14.48
2022-11-07T16:01:16.204Z,24.37
2022-11-07T16:03:45.988Z,31.40
2022-11-07T16:06:45.967Z,25.10
2022-11-07T16:09:20.539Z,21.77
2022-11-07T16:11:47.643Z,19.00
2022-11-07T16:17:05.405Z,15.93
2022-11-07T16:19:32.015Z,18.02
2022-11-07T16:21:58.526Z,19.20
2022-11-07T16:24:25.084Z,17.50
2022-11-07T16:26:51.994Z,16.60
2022-11-07T16:29:18.575Z,15.15
2022-11-07T16:31:45.117Z,15.80
2022-11-07T16:34:15.447Z,18.12
2022-11-07T16:36:42.186Z,18.30
2022-11-07T16:39:19.420Z,20.67
2022-11-07T16:41:46.155Z,21.95
2022-11-07T16:44:12.732Z,22.33
2022-11-07T16:46:41.312Z,21.80
2022-11-07T16:49:25.681Z,24.27
2022-11-07T16:51:52.244Z,24.02
2022-11-07T16:54:18.803Z,26.87
2022-11-07T16:56:47.318Z,26.55
2022-11-07T16:59:19.380Z,26.65
2022-11-07T17:01:46.236Z,23.83
2022-11-07T17:04:13.044Z,20.92
2022-11-07T17:06:46.283Z,20.67
2022-11-07T17:09:17.236Z,17.08
2022-11-07T17:11:45.125Z,17.05
2022-11-07T17:14:12.122Z,16.98
2022-11-07T17:16:42.113Z,16.95
2022-11-07T17:19:12.251Z,15.85
2022-11-07T17:21:43.824Z,15.90
2022-11-07T17:24:10.595Z,14.87
2022-11-07T17:26:38.861Z,13.93
2022-11-07T17:29:07.326Z,13.73
2022-11-07T17:31:34.126Z,13.65
2022-11-07T17:34:01.010Z,15.38
2022-11-07T17:36:36.687Z,16.70
2022-11-07T17:39:11.482Z,19.52
2022-11-07T17:41:40.676Z,18.05
2022-11-07T17:44:07.767Z,17.70
2022-11-07T17:46:35.961Z,19.17
2022-11-07T17:49:07.112Z,18.98
2022-11-07T17:51:36.017Z,20.42
2022-11-07T17:54:03.132Z,18.62
2022-11-07T17:56:31.011Z,19.27
2022-11-07T17:59:00.046Z,18.42
2022-11-07T18:01:30.683Z,17.65
2022-11-07T18:03:58.059Z,18.00
2022-11-07T18:06:26.175Z,16.92
2022-11-07T18:08:55.509Z,17.75
2022-11-07T18:11:25.900Z,18.45
2022-11-07T18:13:56.094Z,16.55
2022-11-07T18:16:27.852Z,16.40
2022-11-07T18:18:55.255Z,16.85
2022-11-07T18:21:21.817Z,17.00
2022-11-07T18:23:48.470Z,18.80
2022-11-07T18:26:20.837Z,17.65
2022-11-07T18:28:51.522Z,19.33
2022-11-07T18:31:20.958Z,21.60
2022-11-07T18:33:48.345Z,24.40
2022-11-07T18:36:18.040Z,25.15
2022-11-07T18:38:45.109Z,25.77
2022-11-07T18:41:16.024Z,22.52
2022-11-07T18:43:42.621Z,22.95
2022-11-07T18:46:14.510Z,21.12
2022-11-07T18:48:42.219Z,22.25
2022-11-07T18:51:16.387Z,22.20
2022-11-07T18:53:44.084Z,21.98
2022-11-07T18:56:12.691Z,23.25
2022-11-07T18:58:41.341Z,27.15
2022-11-07T19:01:13.916Z,28.30
2022-11-07T19:03:42.057Z,28.65
2022-11-07T19:06:11.582Z,30.65
2022-11-07T19:08:40.443Z,31.05
2022-11-07T19:11:11.136Z,28.83
2022-11-07T19:13:39.814Z,24.73
2022-11-07T19:16:08.535Z,21.95
2022-11-07T19:18:35.546Z,21.95
2022-11-07T19:21:03.883Z,18.10
2022-11-07T19:23:30.935Z,16.77
2022-11-07T19:25:57.888Z,17.58
2022-11-07T19:28:24.448Z,15.25
2022-11-07T19:30:51.025Z,16.20
2022-11-07T19:33:17.989Z,18.33
2022-11-07T19:35:44.750Z,17.05
2022-11-07T19:38:12.943Z,18.95
2022-11-07T19:40:41.269Z,19.12
2022-11-07T19:43:09.470Z,19.73
2022-11-07T19:45:40.962Z,19.27
2022-11-07T19:48:07.710Z,18.75
2022-11-07T19:50:34.248Z,18.05
2022-11-07T19:53:00.747Z,17.37
2022-11-07T19:55:27.447Z,17.92
2022-11-07T19:57:53.996Z,17.15
2022-11-07T20:00:20.558Z,17.67
2022-11-07T20:02:47.906Z,17.12
2022-11-07T20:05:23.936Z,16.70
2022-11-07T20:07:58.062Z,17.75
2022-11-07T20:10:27.818Z,18.12
2022-11-07T20:12:55.664Z,16.67
2022-11-07T20:15:22.461Z,16.60
2022-11-07T20:17:49.026Z,20.48
2022-11-07T20:20:15.960Z,20.05
2022-11-07T20:22:47.531Z,18.25
2022-11-07T20:28:04.566Z,18.15
2022-11-07T20:30:31.121Z,16.77
2022-11-07T20:32:58.191Z,18.50
2022-11-07T20:35:24.799Z,18.85
2022-11-07T20:37:51.363Z,21.90
2022-11-07T20:41:20.281Z,19.90
2022-11-07T20:46:49.380Z,16.75
2022-11-07T20:49:38.919Z,16.02
2022-11-07T20:57:53.390Z,13.32
2022-11-07T21:00:21.534Z,12.60
2022-11-07T21:06:12.500Z,14.07
2022-11-07T21:08:48.720Z,13.60
2022-11-07T21:11:24.122Z,12.02
2022-11-07T21:14:12.642Z,11.05
2022-11-07T21:19:21.084Z,11.50
2022-11-07T21:22:16.254Z,10.57
2022-11-07T21:30:40.787Z,11.02
2022-11-07T21:38:46.646Z,14.52
2022-11-07T21:41:26.720Z,13.23
2022-11-07T21:46:34.891Z,13.75
2022-11-07T21:49:01.909Z,10.27
2022-11-07T21:51:36.485Z,12.35
2022-11-07T21:54:44.637Z,11.52
2022-11-07T21:58:05.597Z,11.68
2022-11-07T22:00:36.304Z,12.10
2022-11-07T22:03:04.187Z,13.00
2022-11-07T22:05:30.925Z,13.82
2022-11-07T22:08:02.125Z,14.75
2022-11-07T22:10:28.646Z,14.90
2022-11-07T22:13:19.663Z,14.80
2022-11-07T22:16:09.175Z,15.80
2022-11-07T22:18:35.820Z,14.52
2022-11-07T22:21:05.242Z,14.05
2022-11-07T22:24:18.656Z,14.48
2022-11-07T22:27:31.893Z,14.87
2022-11-07T22:29:58.445Z,14.18
2022-11-07T22:32:24.962Z,13.73
2022-11-07T22:34:51.487Z,14.00
2022-11-07T22:37:18.026Z,14.00
2022-11-07T22:39:44.892Z,13.23
2022-11-07T22:42:11.509Z,13.73
2022-11-07T22:44:38.047Z,13.40
2022-11-07T22:47:04.624Z,12.73
2022-11-07T22:49:31.183Z,12.93
2022-11-07T22:51:57.989Z,13.73
2022-11-07T22:54:24.554Z,13.73
2022-11-07T22:56:51.080Z,12.95
2022-11-07T22:59:17.607Z,12.77
2022-11-07T23:01:44.396Z,12.90
2022-11-07T23:04:15.027Z,12.10
2022-11-07T23:06:42.307Z,12.37
2022-11-07T23:09:11.259Z,15.25
2022-11-07T23:11:45.827Z,14.82
2022-11-07T23:16:56.105Z,14.60
2022-11-07T23:19:25.005Z,12.70
2022-11-07T23:21:52.884Z,12.23
2022-11-07T23:24:20.676Z,12.45
2022-11-07T23:26:47.923Z,13.00
2022-11-07T23:29:38.839Z,13.52
2022-11-07T23:48:58.541Z,11.85
2022-11-07T23:51:25.662Z,12.20
2022-11-07T23:54:10.447Z,12.45
2022-11-07T23:56:37.270Z,11.25
2022-11-07T23:59:22.838Z,11.32
